Time;durP1;ratioP1;P1;durP2;ratioP2;P2;SDS_P1;SDS_P2;PMS_P1;PMS_P2;Temp;Humidity;BMP_temperature;BMP_pressure;BME280_temperature;BME280_humidity;BME280_pressure;Samples;Min_cycle;Max_cycle;Signal;HPM_P1;HPM_P2
2022/01/07 00:00:47;;;;;;;14.57;6.32;;;7.70;96.40;;;;;;5004028;28;20149;-50
2022/01/07 00:03:14;;;;;;;8.93;4.50;;;7.70;96.50;;;;;;5002747;28;20038;-49
2022/01/07 00:05:41;;;;;;;20.55;7.43;;;7.80;96.50;;;;;;5002438;28;20029;-49
2022/01/07 00:08:07;;;;;;;18.30;8.27;;;7.70;96.50;;;;;;5006861;28;20026;-49
2022/01/07 00:10:33;;;;;;;28.75;8.77;;;7.80;96.40;;;;;;5001319;28;20380;-49
2022/01/07 00:12:58;;;;;;;11.07;4.50;;;7.80;96.40;;;;;;4997993;28;20350;-49
2022/01/07 00:15:24;;;;;;;11.82;4.70;;;7.80;96.50;;;;;;5006930;28;20087;-49
2022/01/07 00:17:50;;;;;;;9.70;4.85;;;7.70;96.40;;;;;;5001738;28;20458;-49
2022/01/07 00:20:16;;;;;;;9.15;4.82;;;7.80;96.50;;;;;;5002597;28;20027;-49
2022/01/07 00:22:43;;;;;;;8.05;3.63;;;7.80;96.50;;;;;;5005957;28;20041;-49
2022/01/07 00:25:11;;;;;;;11.40;4.80;;;7.80;96.50;;;;;;5002192;28;20080;-49
2022/01/07 00:27:37;;;;;;;12.18;4.80;;;7.80;96.40;;;;;;5000501;28;20365;-49
2022/01/07 00:30:05;;;;;;;5.60;3.50;;;7.80;96.50;;;;;;5003171;28;20029;-49
2022/01/07 00:32:31;;;;;;;5.95;3.25;;;7.80;96.40;;;;;;5002889;28;20026;-49
2022/01/07 00:34:56;;;;;;;6.38;3.20;;;7.80;96.40;;;;;;5002733;28;20144;-49
2022/01/07 00:37:22;;;;;;;6.70;3.90;;;7.80;96.40;;;;;;5003105;28;20030;-49
2022/01/07 00:39:48;;;;;;;9.57;3.15;;;7.80;96.50;;;;;;5003220;28;20698;-49
2022/01/07 00:42:14;;;;;;;7.47;3.75;;;7.70;96.50;;;;;;5001500;28;20046;-49
2022/01/07 00:44:40;;;;;;;7.85;2.80;;;7.70;96.50;;;;;;5000043;28;20030;-48
2022/01/07 00:47:05;;;;;;;5.28;2.50;;;7.80;96.50;;;;;;5005075;28;20037;-49
2022/01/07 00:49:32;;;;;;;9.73;4.13;;;7.80;96.50;;;;;;5001267;28;20043;-49
2022/01/07 00:51:59;;;;;;;6.15;3.40;;;7.80;96.50;;;;;;5004569;28;20429;-49
2022/01/07 00:54:25;;;;;;;5.07;3.00;;;7.80;96.40;;;;;;5002467;28;20292;-49
2022/01/07 00:56:50;;;;;;;9.20;2.72;;;7.80;96.40;;;;;;5001728;28;20038;-49
2022/01/07 00:59:16;;;;;;;6.47;3.53;;;7.80;96.40;;;;;;5001984;28;20531;-49
2022/01/07 01:01:41;;;;;;;7.80;3.33;;;7.80;96.40;;;;;;5001396;28;20026;-49
2022/01/07 01:04:07;;;;;;;1.85;1.67;;;7.80;96.40;;;;;;5004211;28;20042;-49
2022/01/07 01:06:34;;;;;;;7.10;4.07;;;7.70;96.40;;;;;;5000571;28;20076;-49
2022/01/07 01:08:59;;;;;;;8.50;3.85;;;7.70;96.40;;;;;;5001408;28;20362;-49
2022/01/07 01:11:25;;;;;;;12.10;4.38;;;7.70;96.40;;;;;;4998688;28;20037;-49
2022/01/07 01:13:51;;;;;;;20.77;4.82;;;7.80;96.40;;;;;;5002361;28;20037;-49
2022/01/07 01:16:16;;;;;;;14.18;5.05;;;7.70;96.40;;;;;;5000146;28;20026;-49
2022/01/07 01:18:42;;;;;;;8.43;4.28;;;7.70;96.40;;;;;;5002525;28;20462;-49
2022/01/07 01:21:07;;;;;;;10.57;5.00;;;7.70;96.40;;;;;;5002095;28;20156;-49
2022/01/07 01:23:33;;;;;;;10.70;4.95;;;7.70;96.40;;;;;;4998870;28;20041;-49
2022/01/07 01:25:59;;;;;;;16.50;5.88;;;7.80;96.40;;;;;;5001434;28;20365;-49
2022/01/07 01:28:25;;;;;;;10.80;5.18;;;7.80;96.40;;;;;;5002797;28;20471;-49
2022/01/07 01:30:51;;;;;;;12.68;5.43;;;7.70;96.40;;;;;;5002755;28;20033;-49
2022/01/07 01:33:18;;;;;;;17.98;6.55;;;7.70;96.40;;;;;;5002833;28;20081;-49
2022/01/07 01:35:43;;;;;;;17.80;6.07;;;7.70;96.40;;;;;;4999725;28;20477;-49
2022/01/07 01:38:09;;;;;;;15.00;5.97;;;7.70;96.40;;;;;;5002317;28;20030;-49
2022/01/07 01:40:35;;;;;;;11.57;4.85;;;7.70;96.40;;;;;;5001704;28;20037;-49
2022/01/07 01:43:01;;;;;;;11.15;6.00;;;7.70;96.40;;;;;;4998109;28;20097;-49
2022/01/07 01:45:27;;;;;;;17.48;5.93;;;7.70;96.80;;;;;;5001846;28;20061;-49
2022/01/07 01:47:54;;;;;;;17.60;6.43;;;7.70;96.50;;;;;;5000584;28;20020;-49
2022/01/07 01:50:20;;;;;;;13.73;5.50;;;7.80;96.50;;;;;;5004830;28;20037;-49
2022/01/07 01:52:53;;;;;;;12.18;4.93;;;7.70;96.50;;;;;;5000042;28;20029;-49
2022/01/07 01:55:20;;;;;;;9.93;5.07;;;7.70;96.50;;;;;;5003772;28;20076;-49
2022/01/07 01:57:47;;;;;;;9.75;3.97;;;7.70;96.50;;;;;;4998739;28;20121;-49
2022/01/07 02:00:13;;;;;;;7.43;4.13;;;7.70;96.50;;;;;;5002286;28;20033;-49
2022/01/07 02:02:39;;;;;;;9.55;4.10;;;7.80;96.50;;;;;;4998365;28;20463;-49
2022/01/07 02:05:05;;;;;;;14.55;5.72;;;7.70;96.40;;;;;;4999537;28;20046;-49
2022/01/07 02:07:35;;;;;;;11.57;5.28;;;7.70;96.50;;;;;;4999772;28;20101;-49
2022/01/07 02:10:06;;;;;;;14.13;5.70;;;7.70;96.50;;;;;;5001345;28;20034;-49
2022/01/07 02:12:32;;;;;;;11.30;5.03;;;7.70;96.50;;;;;;5002393;28;20038;-49
2022/01/07 02:14:57;;;;;;;9.15;4.78;;;7.70;96.50;;;;;;5005715;28;20076;-49
2022/01/07 02:17:25;;;;;;;6.07;3.53;;;7.80;96.50;;;;;;5009289;28;20026;-48
2022/01/07 02:19:51;;;;;;;15.73;5.60;;;7.70;96.50;;;;;;5006567;28;20026;-49
2022/01/07 02:22:18;;;;;;;16.55;5.68;;;7.70;96.50;;;;;;5010619;28;20341;-49
2022/01/07 02:24:45;;;;;;;12.85;6.03;;;7.70;96.40;;;;;;5006105;28;20030;-49
2022/01/07 02:27:12;;;;;;;16.80;5.22;;;7.80;96.50;;;;;;5004719;28;20445;-49
2022/01/07 02:29:39;;;;;;;18.10;7.22;;;7.70;96.50;;;;;;5007437;28;20046;-49
2022/01/07 02:32:05;;;;;;;14.98;4.32;;;7.70;96.40;;;;;;5007769;28;20029;-49
2022/01/07 02:34:31;;;;;;;7.38;2.63;;;7.70;96.40;;;;;;5008042;28;20724;-49
2022/01/07 02:36:57;;;;;;;6.57;3.42;;;7.70;96.50;;;;;;5005733;28;20480;-49
2022/01/07 02:39:22;;;;;;;12.02;5.78;;;7.70;96.50;;;;;;5011661;28;20037;-49
2022/01/07 02:41:48;;;;;;;14.70;5.25;;;7.70;96.40;;;;;;5008133;28;20033;-49
2022/01/07 02:44:14;;;;;;;16.60;6.15;;;7.70;96.50;;;;;;5006732;28;20443;-49
2022/01/07 02:46:41;;;;;;;12.95;5.32;;;7.70;96.40;;;;;;5005197;28;20026;-49
2022/01/07 02:49:14;;;;;;;11.82;4.93;;;7.70;96.40;;;;;;5007181;28;20088;-49
2022/01/07 02:51:40;;;;;;;9.02;5.35;;;7.80;96.50;;;;;;5006230;28;20408;-49
2022/01/07 02:54:07;;;;;;;15.05;4.75;;;7.70;96.50;;;;;;5010666;28;20060;-49
2022/01/07 02:56:33;;;;;;;12.55;6.28;;;7.70;96.50;;;;;;5002798;28;20032;-49
2022/01/07 02:58:59;;;;;;;14.98;5.80;;;7.70;96.50;;;;;;5008102;28;20064;-49
2022/01/07 03:01:25;;;;;;;12.45;4.85;;;7.70;96.50;;;;;;5008309;28;20037;-49
2022/01/07 03:03:51;;;;;;;11.40;5.03;;;7.70;96.40;;;;;;5006542;28;20143;-49
2022/01/07 03:06:16;;;;;;;12.23;5.78;;;7.70;96.40;;;;;;5007480;28;20025;-49
2022/01/07 03:08:46;;;;;;;13.95;5.50;;;7.70;96.50;;;;;;5007180;28;20472;-49
2022/01/07 03:11:11;;;;;;;10.25;3.80;;;7.70;96.50;;;;;;5007209;28;20023;-49
2022/01/07 03:13:38;;;;;;;12.68;6.35;;;7.70;96.40;;;;;;5007240;28;20476;-49
2022/01/07 03:16:04;;;;;;;8.45;4.50;;;7.70;96.40;;;;;;5011021;28;20096;-49
2022/01/07 03:18:30;;;;;;;14.10;6.22;;;7.70;96.50;;;;;;5005757;28;20033;-49
2022/01/07 03:20:58;;;;;;;14.88;5.28;;;7.70;96.50;;;;;;5006866;28;20037;-49
2022/01/07 03:23:23;;;;;;;13.30;5.55;;;7.70;96.40;;;;;;5006319;28;20034;-49
2022/01/07 03:25:49;;;;;;;15.50;6.43;;;7.70;96.50;;;;;;5004035;28;20026;-49
2022/01/07 03:28:14;;;;;;;13.20;6.03;;;7.70;96.50;;;;;;4997683;28;20026;-49
2022/01/07 03:30:41;;;;;;;9.73;4.68;;;7.70;96.50;;;;;;5007862;28;20028;-49
2022/01/07 03:33:07;;;;;;;12.52;5.70;;;7.70;96.50;;;;;;5005779;28;20356;-49
2022/01/07 03:35:33;;;;;;;18.10;6.80;;;7.70;96.50;;;;;;5003061;28;20030;-49
2022/01/07 03:37:59;;;;;;;21.65;8.13;;;7.70;96.50;;;;;;5005549;28;20027;-49
2022/01/07 03:40:25;;;;;;;19.08;7.53;;;7.70;96.50;;;;;;5004858;28;20026;-49
2022/01/07 03:42:51;;;;;;;17.10;6.47;;;7.70;96.50;;;;;;5005397;28;20046;-49
2022/01/07 03:45:18;;;;;;;13.05;6.25;;;7.70;96.50;;;;;;5005451;28;20030;-49
2022/01/07 03:47:44;;;;;;;14.00;6.47;;;7.70;96.50;;;;;;5003325;28;20030;-49
2022/01/07 03:50:13;;;;;;;11.75;3.90;;;7.70;96.50;;;;;;5001874;28;20076;-49
2022/01/07 03:52:39;;;;;;;16.67;5.95;;;7.70;96.50;;;;;;5002727;28;20029;-49
2022/01/07 03:55:08;;;;;;;8.15;4.20;;;7.70;96.50;;;;;;5003318;28;20037;-49
2022/01/07 03:57:33;;;;;;;8.40;2.85;;;7.70;96.60;;;;;;4998497;28;20030;-49
2022/01/07 03:59:59;;;;;;;7.82;4.00;;;7.70;96.50;;;;;;5003984;28;20029;-49
2022/01/07 04:02:25;;;;;;;9.25;3.85;;;7.70;96.50;;;;;;5003678;28;20467;-49
2022/01/07 04:04:50;;;;;;;12.45;5.43;;;7.70;96.50;;;;;;5001767;28;20307;-49
2022/01/07 04:07:16;;;;;;;13.35;4.88;;;7.70;96.50;;;;;;5005437;28;20022;-49
2022/01/07 04:09:41;;;;;;;11.95;4.78;;;7.70;96.50;;;;;;5002558;28;20042;-49
2022/01/07 04:12:08;;;;;;;12.05;5.32;;;7.70;96.50;;;;;;5007310;28;20447;-49
2022/01/07 04:14:34;;;;;;;7.68;4.00;;;7.70;96.50;;;;;;5005055;28;20448;-49
2022/01/07 04:17:00;;;;;;;10.55;5.00;;;7.70;96.50;;;;;;5001648;28;20500;-49
2022/01/07 04:19:26;;;;;;;14.40;6.15;;;7.70;96.50;;;;;;5003056;28;20038;-49
2022/01/07 04:21:52;;;;;;;12.02;5.90;;;7.70;96.50;;;;;;5003106;28;20143;-49
2022/01/07 04:24:18;;;;;;;9.45;3.88;;;7.70;96.50;;;;;;5000715;28;20179;-49
2022/01/07 04:26:44;;;;;;;12.57;4.15;;;7.70;96.50;;;;;;5002596;28;20076;-49
2022/01/07 04:29:10;;;;;;;9.73;4.20;;;7.70;96.50;;;;;;5001541;28;20042;-49
2022/01/07 04:31:36;;;;;;;10.75;5.30;;;7.70;96.50;;;;;;5003275;28;20349;-49
2022/01/07 04:34:02;;;;;;;12.80;5.63;;;7.70;96.50;;;;;;5006209;28;20121;-49
2022/01/07 04:36:28;;;;;;;13.20;6.20;;;7.70;96.50;;;;;;5003936;28;20021;-49
2022/01/07 04:38:54;;;;;;;16.30;5.72;;;7.70;96.50;;;;;;5001154;28;20441;-49
2022/01/07 04:41:19;;;;;;;9.93;4.18;;;7.70;96.50;;;;;;5004105;28;20066;-49
2022/01/07 04:43:45;;;;;;;6.50;3.03;;;7.70;96.50;;;;;;5002206;28;20061;-49
2022/01/07 04:46:11;;;;;;;15.77;5.93;;;7.70;96.50;;;;;;5001148;28;20132;-49
2022/01/07 04:48:37;;;;;;;13.80;5.88;;;7.70;96.50;;;;;;5000823;28;20034;-49
2022/01/07 04:51:03;;;;;;;11.20;5.40;;;7.70;96.60;;;;;;5006399;28;20032;-49
2022/01/07 04:53:28;;;;;;;8.70;4.68;;;7.70;96.50;;;;;;5000206;28;20414;-49
2022/01/07 04:55:56;;;;;;;16.58;6.72;;;7.70;96.50;;;;;;5004481;28;20034;-49
2022/01/07 04:58:22;;;;;;;11.63;5.65;;;7.70;96.50;;;;;;4999045;28;20057;-49
2022/01/07 05:00:48;;;;;;;13.75;4.60;;;7.70;96.50;;;;;;5001329;28;20065;-51
2022/01/07 05:03:13;;;;;;;12.05;6.07;;;7.70;96.50;;;;;;5002536;28;20125;-49
2022/01/07 05:05:39;;;;;;;11.77;5.13;;;7.70;96.50;;;;;;5002052;28;20369;-49
2022/01/07 05:08:06;;;;;;;4.07;2.63;;;7.70;96.50;;;;;;5002235;28;20108;-49
2022/01/07 05:10:32;;;;;;;8.85;4.00;;;7.70;96.50;;;;;;4999582;28;20038;-49
2022/01/07 05:12:58;;;;;;;10.93;5.13;;;7.70;96.50;;;;;;4999671;28;20457;-49
2022/01/07 05:15:23;;;;;;;6.68;4.13;;;7.70;96.50;;;;;;5002280;28;20038;-49
2022/01/07 05:17:50;;;;;;;10.35;4.90;;;7.70;96.50;;;;;;5002575;28;20029;-49
2022/01/07 05:20:16;;;;;;;10.52;5.07;;;7.70;96.50;;;;;;5000818;28;20029;-49
2022/01/07 05:22:43;;;;;;;11.95;4.70;;;7.70;96.40;;;;;;5002716;28;20034;-49
2022/01/07 05:25:11;;;;;;;10.82;4.53;;;7.70;96.50;;;;;;5000437;28;20050;-49
2022/01/07 05:27:37;;;;;;;9.38;4.10;;;7.70;96.40;;;;;;5001339;28;20080;-49
2022/01/07 05:30:05;;;;;;;14.10;5.35;;;7.70;96.50;;;;;;5002311;28;20030;-50
2022/01/07 05:32:31;;;;;;;8.13;4.25;;;7.70;96.50;;;;;;4998757;28;20093;-49
2022/01/07 05:34:57;;;;;;;9.90;3.85;;;7.70;96.50;;;;;;5003923;28;20358;-49
2022/01/07 05:37:22;;;;;;;8.30;4.38;;;7.70;96.40;;;;;;5003365;28;20053;-49
2022/01/07 05:39:48;;;;;;;9.85;4.60;;;7.70;96.50;;;;;;5001382;28;20304;-49
2022/01/07 05:42:14;;;;;;;15.52;5.10;;;7.70;96.40;;;;;;5001271;28;20103;-49
2022/01/07 05:44:39;;;;;;;8.02;4.47;;;7.70;96.40;;;;;;5004470;28;20040;-49
2022/01/07 05:47:05;;;;;;;11.40;4.53;;;7.70;96.40;;;;;;5000533;28;20121;-48
2022/01/07 05:49:31;;;;;;;10.73;4.32;;;7.70;96.40;;;;;;4999374;28;20118;-49
2022/01/07 05:51:56;;;;;;;8.10;4.80;;;7.70;96.40;;;;;;4999660;28;20164;-49
2022/01/07 05:54:22;;;;;;;10.10;4.32;;;7.70;96.40;;;;;;5002369;28;20475;-49
2022/01/07 05:56:48;;;;;;;11.82;4.43;;;7.60;96.40;;;;;;4999673;28;20030;-49
2022/01/07 05:59:13;;;;;;;8.85;3.78;;;7.70;96.50;;;;;;5000184;28;20031;-49
2022/01/07 06:01:39;;;;;;;11.73;3.72;;;7.60;96.40;;;;;;5001896;28;20530;-49
2022/01/07 06:04:05;;;;;;;4.60;2.78;;;7.70;96.40;;;;;;4999262;28;20091;-49
2022/01/07 06:06:30;;;;;;;11.52;3.97;;;7.70;96.40;;;;;;5000609;28;20073;-49
2022/01/07 06:08:56;;;;;;;6.20;3.50;;;7.70;96.40;;;;;;5000981;28;20096;-49
2022/01/07 06:11:22;;;;;;;6.47;3.60;;;7.70;96.40;;;;;;5001163;28;20231;-49
2022/01/07 06:13:47;;;;;;;11.02;5.03;;;7.70;96.50;;;;;;4997689;28;20096;-49
2022/01/07 06:16:13;;;;;;;9.80;4.43;;;7.70;96.40;;;;;;5001966;28;20105;-49
2022/01/07 06:21:20;;;;;;;9.73;4.43;;;7.70;96.40;;;;;;5000964;28;20368;-48
2022/01/07 06:23:46;;;;;;;11.57;4.95;;;7.60;96.40;;;;;;5004769;28;20098;-49
2022/01/07 06:26:11;;;;;;;9.35;4.07;;;7.70;96.50;;;;;;5003582;28;20433;-49
2022/01/07 06:28:37;;;;;;;0.93;0.68;;;7.70;96.40;;;;;;4998524;28;20054;-49
2022/01/07 06:31:03;;;;;;;6.80;3.65;;;7.60;96.40;;;;;;5001075;28;20425;-49
2022/01/07 06:33:28;;;;;;;6.30;3.50;;;7.70;96.40;;;;;;5000162;28;20026;-49
2022/01/07 06:35:54;;;;;;;8.20;3.38;;;7.70;96.40;;;;;;4998750;28;20547;-49
2022/01/07 06:38:19;;;;;;;3.28;2.58;;;7.70;96.70;;;;;;5000499;28;20054;-49
2022/01/07 06:40:45;;;;;;;8.88;3.80;;;7.60;96.40;;;;;;5000057;28;20026;-49
2022/01/07 06:43:11;;;;;;;7.80;4.10;;;7.70;96.40;;;;;;5000445;28;20689;-49
2022/01/07 06:45:36;;;;;;;8.55;3.08;;;7.70;96.40;;;;;;5003223;28;20030;-49
2022/01/07 06:48:02;;;;;;;14.43;4.68;;;7.70;96.40;;;;;;5002313;28;20441;-49
2022/01/07 06:50:28;;;;;;;7.45;3.65;;;7.70;96.40;;;;;;4998880;28;20055;-49
2022/01/07 06:52:53;;;;;;;9.88;4.63;;;7.70;96.40;;;;;;4998547;28;20299;-49
2022/01/07 06:55:19;;;;;;;8.35;4.20;;;7.70;96.40;;;;;;5006043;28;20030;-49
2022/01/07 06:57:45;;;;;;;8.52;4.07;;;7.70;96.30;;;;;;5005734;28;20057;-49
2022/01/07 07:00:11;;;;;;;6.75;3.85;;;7.70;96.40;;;;;;5006916;28;20041;-49
2022/01/07 07:02:36;;;;;;;9.70;4.90;;;7.70;96.80;;;;;;5003815;28;20045;-49
2022/01/07 07:05:02;;;;;;;6.35;3.65;;;7.70;96.40;;;;;;5008584;28;20038;-49
2022/01/07 07:07:27;;;;;;;8.52;3.63;;;7.70;96.40;;;;;;5004968;28;20037;-49
2022/01/07 07:09:53;;;;;;;8.48;3.95;;;7.70;96.40;;;;;;5003704;28;20471;-49
2022/01/07 07:12:19;;;;;;;6.78;3.85;;;7.70;96.40;;;;;;5008106;28;20026;-49
2022/01/07 07:14:44;;;;;;;9.05;5.00;;;7.70;96.40;;;;;;5003880;28;20112;-49
2022/01/07 07:17:12;;;;;;;8.63;4.40;;;7.70;96.60;;;;;;5004501;28;20026;-49
2022/01/07 07:19:37;;;;;;;15.05;5.60;;;7.70;96.40;;;;;;5004632;28;20034;-49
2022/01/07 07:22:03;;;;;;;10.00;5.10;;;7.70;96.70;;;;;;5004199;28;20049;-49
2022/01/07 07:24:29;;;;;;;7.53;4.28;;;7.70;96.40;;;;;;5010555;28;20125;-49
2022/01/07 07:26:55;;;;;;;14.55;5.35;;;7.70;96.40;;;;;;5005891;28;20117;-49
2022/01/07 07:29:20;;;;;;;11.80;4.97;;;7.70;96.40;;;;;;5005797;28;20137;-49
2022/01/07 07:31:49;;;;;;;7.97;4.00;;;7.70;96.40;;;;;;5011359;28;20405;-49
2022/01/07 07:36:41;;;;;;;12.32;6.32;;;7.70;96.40;;;;;;5011541;28;20013;-49
2022/01/07 07:39:09;;;;;;;11.48;5.35;;;7.70;96.50;;;;;;5010869;28;20126;-49
2022/01/07 07:41:37;;;;;;;8.85;5.35;;;7.70;96.40;;;;;;5007925;28;20099;-49
2022/01/07 07:44:04;;;;;;;10.00;4.60;;;7.70;96.50;;;;;;5008738;28;20137;-49
2022/01/07 07:46:32;;;;;;;12.13;5.20;;;7.70;96.50;;;;;;5009817;28;20063;-49
2022/01/07 07:49:01;;;;;;;8.82;4.57;;;7.70;96.40;;;;;;5009320;28;20032;-49
2022/01/07 07:51:28;;;;;;;12.00;5.85;;;7.70;96.40;;;;;;5009929;28;20029;-49
2022/01/07 07:53:54;;;;;;;10.70;4.60;;;7.70;96.40;;;;;;5002203;28;20027;-49
2022/01/07 07:56:20;;;;;;;7.72;3.80;;;7.70;96.50;;;;;;5004143;28;20065;-49
2022/01/07 07:58:46;;;;;;;9.40;4.57;;;7.70;96.40;;;;;;5002022;28;20028;-50
2022/01/07 08:01:12;;;;;;;8.73;4.10;;;7.70;96.40;;;;;;5006279;28;20029;-49
2022/01/07 08:03:41;;;;;;;6.03;3.50;;;7.70;96.40;;;;;;5006999;28;20026;-51
2022/01/07 08:06:07;;;;;;;13.15;3.97;;;7.60;96.30;;;;;;5008818;28;20101;-49
2022/01/07 08:08:34;;;;;;;4.57;2.53;;;7.60;95.60;;;;;;5009732;28;20084;-49
2022/01/07 08:11:02;;;;;;;2.88;2.17;;;7.60;95.80;;;;;;5007771;28;20026;-49
2022/01/07 08:15:57;;;;;;;5.35;3.42;;;7.60;95.70;;;;;;5003462;28;20038;-49
2022/01/07 08:16:19;;;;;;;8.48;3.63;;;7.60;95.60;;;;;;5008276;28;20057;-49
2022/01/07 08:18:53;;;;;;;10.45;4.32;;;7.60;95.60;;;;;;5003796;28;20457;-49
2022/01/07 08:21:20;;;;;;;3.72;2.75;;;7.60;95.60;;;;;;5005684;28;20069;-49
2022/01/07 08:23:46;;;;;;;4.70;2.50;;;7.60;95.50;;;;;;4997806;28;20030;-49
2022/01/07 08:26:13;;;;;;;9.73;3.15;;;7.60;95.50;;;;;;5003733;28;20026;-49
2022/01/07 08:28:44;;;;;;;10.82;5.05;;;7.60;95.60;;;;;;5000968;28;20042;-49
2022/01/07 08:36:25;;;;;;;11.05;5.32;;;7.60;95.50;;;;;;5010773;28;20092;-50
2022/01/07 08:38:52;;;;;;;4.32;1.63;;;7.60;95.60;;;;;;5011075;28;20989;-49
2022/01/07 08:41:19;;;;;;;12.13;4.03;;;7.60;95.50;;;;;;5009471;28;20014;-49
2022/01/07 08:43:44;;;;;;;6.85;3.95;;;7.60;95.60;;;;;;5010146;28;20029;-49
2022/01/07 08:46:10;;;;;;;9.43;4.03;;;7.60;95.50;;;;;;5005415;28;20033;-49
2022/01/07 08:48:37;;;;;;;8.70;3.17;;;7.60;95.60;;;;;;5009527;28;20064;-49
2022/01/07 08:51:04;;;;;;;1.00;0.85;;;7.60;95.60;;;;;;5005910;28;20054;-49
2022/01/07 08:53:30;;;;;;;4.30;2.08;;;7.60;95.50;;;;;;5004569;28;20037;-49
2022/01/07 08:55:56;;;;;;;7.07;2.10;;;7.60;95.50;;;;;;5005323;28;20092;-50
2022/01/07 08:58:22;;;;;;;3.13;1.30;;;7.60;95.60;;;;;;5004005;28;20022;-49
2022/01/07 09:00:49;;;;;;;2.35;1.17;;;7.60;95.60;;;;;;5007879;28;20030;-51
2022/01/07 09:03:14;;;;;;;4.72;3.20;;;7.60;95.50;;;;;;5003728;28;20291;-49
2022/01/07 09:05:40;;;;;;;4.90;2.83;;;7.60;95.50;;;;;;5007585;28;20057;-49
2022/01/07 09:08:09;;;;;;;1.00;0.98;;;7.60;95.60;;;;;;5006028;28;20524;-49
2022/01/07 09:10:35;;;;;;;6.25;3.30;;;7.70;95.50;;;;;;5005651;28;20141;-49
2022/01/07 09:13:00;;;;;;;2.00;1.40;;;7.60;95.50;;;;;;5003918;28;20504;-49
2022/01/07 09:15:26;;;;;;;3.25;1.40;;;7.60;95.50;;;;;;5003939;28;20033;-49
2022/01/07 09:17:51;;;;;;;1.08;1.02;;;7.70;95.50;;;;;;5003965;28;20554;-49
2022/01/07 09:20:20;;;;;;;0.80;0.60;;;7.70;95.50;;;;;;5005507;28;20029;-49
2022/01/07 09:22:46;;;;;;;8.93;2.10;;;7.70;95.50;;;;;;5002456;28;20018;-49
2022/01/07 09:25:11;;;;;;;2.00;1.33;;;7.70;95.50;;;;;;5005819;28;20075;-49
2022/01/07 09:27:38;;;;;;;5.82;2.65;;;7.60;95.50;;;;;;5002848;28;20320;-49
2022/01/07 09:30:05;;;;;;;1.45;1.17;;;7.70;95.50;;;;;;5006513;28;20030;-49
2022/01/07 09:32:30;;;;;;;1.10;1.00;;;7.70;95.70;;;;;;5003193;28;20088;-49
2022/01/07 09:34:56;;;;;;;2.75;2.03;;;7.60;95.50;;;;;;5002973;28;20022;-50
2022/01/07 09:37:21;;;;;;;5.43;3.17;;;7.70;95.50;;;;;;5005982;28;20021;-49
2022/01/07 09:39:47;;;;;;;5.55;2.55;;;7.70;95.50;;;;;;4999718;28;20397;-49
2022/01/07 09:42:13;;;;;;;11.95;2.90;;;7.70;95.50;;;;;;5007878;28;20014;-49
2022/01/07 09:44:40;;;;;;;7.70;3.60;;;7.70;95.50;;;;;;5004476;28;20037;-49
2022/01/07 09:47:07;;;;;;;7.00;3.42;;;7.70;95.50;;;;;;4998106;28;20113;-49
2022/01/07 09:49:34;;;;;;;2.95;1.90;;;7.70;95.50;;;;;;5004029;28;20112;-50
2022/01/07 09:52:00;;;;;;;7.57;1.83;;;7.70;95.50;;;;;;5002782;28;20038;-49
2022/01/07 09:54:26;;;;;;;1.60;1.50;;;7.70;95.50;;;;;;5004352;28;20080;-49
2022/01/07 09:56:52;;;;;;;13.02;3.40;;;7.70;95.40;;;;;;5005561;28;20022;-50
2022/01/07 09:59:18;;;;;;;2.05;1.45;;;7.70;95.50;;;;;;5000200;28;20014;-49
2022/01/07 10:02:01;;;;;;;5.80;3.50;;;7.70;95.50;;;;;;5002055;28;20073;-49
2022/01/07 10:04:32;;;;;;;7.53;3.22;;;7.70;95.50;;;;;;5002764;28;20061;-49
2022/01/07 10:07:13;;;;;;;7.80;4.13;;;7.70;95.50;;;;;;5005287;28;20022;-49
2022/01/07 10:09:40;;;;;;;6.97;3.38;;;7.70;95.60;;;;;;5000919;28;20349;-49
2022/01/07 10:12:09;;;;;;;4.25;2.72;;;7.70;95.60;;;;;;5003341;28;20499;-49
2022/01/07 10:14:36;;;;;;;3.35;2.25;;;7.70;95.60;;;;;;5002430;28;20061;-49
2022/01/07 10:17:03;;;;;;;2.45;1.67;;;7.70;95.50;;;;;;5004150;28;20060;-49
2022/01/07 10:19:41;;;;;;;5.65;2.83;;;7.70;95.50;;;;;;5002642;28;20040;-49
2022/01/07 10:22:13;;;;;;;3.42;1.80;;;7.70;95.50;;;;;;5005239;28;20037;-49
2022/01/07 10:24:58;;;;;;;6.13;2.80;;;7.70;95.50;;;;;;5005128;28;20512;-49
2022/01/07 10:27:34;;;;;;;5.90;3.35;;;7.70;95.50;;;;;;4999606;28;20030;-49
2022/01/07 10:30:00;;;;;;;1.13;1.00;;;7.70;95.50;;;;;;5000703;28;20477;-49
2022/01/07 10:32:29;;;;;;;4.93;3.50;;;7.70;95.50;;;;;;5000712;28;20061;-49
2022/01/07 10:35:15;;;;;;;3.05;1.75;;;7.70;95.50;;;;;;5003252;28;20022;-49
2022/01/07 10:38:02;;;;;;;7.50;4.03;;;7.70;95.50;;;;;;5004855;28;20026;-49
2022/01/07 10:40:33;;;;;;;0.93;0.55;;;7.70;95.60;;;;;;5005246;28;20120;-49
2022/01/07 10:43:27;;;;;;;1.55;0.80;;;7.70;95.50;;;;;;5007715;28;20030;-49
2022/01/07 10:45:58;;;;;;;6.03;2.63;;;7.80;95.50;;;;;;5006531;28;20357;-49
2022/01/07 10:48:39;;;;;;;10.73;3.15;;;7.80;95.50;;;;;;5009265;28;20030;-49
2022/01/07 10:51:07;;;;;;;4.60;2.40;;;7.80;95.50;;;;;;5011078;28;20041;-49
2022/01/07 10:53:33;;;;;;;1.42;1.33;;;7.80;95.50;;;;;;5004647;28;20457;-49
2022/01/07 10:56:02;;;;;;;6.43;2.97;;;7.80;95.50;;;;;;5007617;28;20048;-49
2022/01/07 10:58:29;;;;;;;4.55;2.60;;;7.80;95.50;;;;;;5004312;28;20487;-49
2022/01/07 11:00:54;;;;;;;8.13;4.38;;;7.80;95.50;;;;;;5007417;28;20061;-50
2022/01/07 11:03:20;;;;;;;6.20;2.95;;;7.80;95.50;;;;;;5003539;28;20566;-49
2022/01/07 11:05:46;;;;;;;1.60;1.20;;;7.80;95.40;;;;;;5005876;28;20019;-49
2022/01/07 11:08:16;;;;;;;5.65;2.83;;;7.80;95.50;;;;;;5003610;28;20025;-49
2022/01/07 11:10:42;;;;;;;4.65;2.78;;;7.80;95.40;;;;;;5007715;28;20037;-49
2022/01/07 11:13:10;;;;;;;2.55;1.65;;;7.80;95.40;;;;;;5005930;28;20453;-49
2022/01/07 11:15:37;;;;;;;0.57;0.57;;;7.80;95.40;;;;;;5007620;28;20417;-49
2022/01/07 11:18:02;;;;;;;9.23;5.30;;;7.80;95.40;;;;;;5002351;28;20130;-49
2022/01/07 11:20:28;;;;;;;3.58;2.40;;;7.80;95.50;;;;;;5007868;28;20565;-49
2022/01/07 11:22:54;;;;;;;6.78;3.67;;;7.80;95.50;;;;;;5004213;28;20018;-49
2022/01/07 11:25:29;;;;;;;4.53;2.47;;;7.80;95.40;;;;;;5005279;28;20032;-49
2022/01/07 11:27:57;;;;;;;1.52;0.93;;;7.80;95.40;;;;;;5008768;28;20084;-49
2022/01/07 11:30:26;;;;;;;0.88;0.88;;;7.90;95.50;;;;;;5008921;28;20121;-49
2022/01/07 11:32:53;;;;;;;16.50;5.32;;;7.80;95.40;;;;;;5005845;28;20029;-49
2022/01/07 11:35:21;;;;;;;3.05;2.03;;;7.90;95.40;;;;;;5005891;28;20060;-49
2022/01/07 11:37:55;;;;;;;1.67;1.42;;;7.80;95.70;;;;;;5007832;28;20017;-49
2022/01/07 11:40:30;;;;;;;3.35;1.77;;;7.80;95.40;;;;;;5005200;28;20038;-49
2022/01/07 11:42:56;;;;;;;0.93;0.93;;;7.80;95.40;;;;;;5005950;28;20473;-49
2022/01/07 11:45:31;;;;;;;0.65;0.65;;;7.90;95.40;;;;;;5006932;28;20109;-49
2022/01/07 11:48:09;;;;;;;0.80;0.70;;;7.90;95.40;;;;;;5005051;28;20049;-49
2022/01/07 11:51:00;;;;;;;1.70;1.33;;;7.90;95.30;;;;;;5005826;28;20054;-50
2022/01/07 11:53:48;;;;;;;4.80;1.98;;;7.90;95.40;;;;;;5005398;28;20103;-49
2022/01/07 11:56:16;;;;;;;0.20;0.20;;;7.90;95.40;;;;;;5007102;28;20036;-50
2022/01/07 11:58:45;;;;;;;6.70;3.28;;;7.90;95.40;;;;;;5005326;28;20029;-49
2022/01/07 12:01:31;;;;;;;8.20;4.30;;;7.90;95.40;;;;;;5004828;28;20038;-49
2022/01/07 12:03:59;;;;;;;0.73;0.70;;;7.90;95.40;;;;;;5002015;28;20035;-49
2022/01/07 12:06:28;;;;;;;5.97;3.75;;;7.90;95.40;;;;;;5007173;28;20033;-49
2022/01/07 12:09:08;;;;;;;8.57;4.15;;;7.90;95.40;;;;;;5004902;28;20504;-49
2022/01/07 12:11:42;;;;;;;6.00;3.53;;;7.90;95.40;;;;;;5002169;28;20026;-49
2022/01/07 12:14:18;;;;;;;8.30;4.05;;;7.90;95.40;;;;;;5006001;28;20022;-49
2022/01/07 12:16:56;;;;;;;0.82;0.82;;;7.90;95.50;;;;;;5004798;28;20061;-49
2022/01/07 12:19:36;;;;;;;6.15;2.38;;;7.90;95.50;;;;;;5000671;28;20070;-50
2022/01/07 12:22:07;;;;;;;14.93;2.63;;;7.90;95.50;;;;;;5005185;28;20036;-49
2022/01/07 12:24:33;;;;;;;1.65;1.27;;;7.90;95.50;;;;;;5005502;28;20137;-49
2022/01/07 12:27:08;;;;;;;13.23;4.07;;;7.90;95.70;;;;;;5001626;28;20057;-49
2022/01/07 12:29:35;;;;;;;1.75;1.23;;;7.90;95.50;;;;;;5003665;28;20097;-49
2022/01/07 12:32:04;;;;;;;5.25;2.72;;;7.90;95.50;;;;;;5004719;28;20053;-50
2022/01/07 12:34:32;;;;;;;6.10;3.40;;;7.90;95.50;;;;;;5007752;28;20320;-50
2022/01/07 12:37:00;;;;;;;9.00;4.07;;;7.90;95.60;;;;;;5009446;28;20022;-49
2022/01/07 12:39:28;;;;;;;3.53;2.33;;;7.90;95.70;;;;;;5006811;28;20029;-49
2022/01/07 12:41:55;;;;;;;5.25;2.33;;;7.90;95.60;;;;;;5004474;28;20025;-49
2022/01/07 12:44:22;;;;;;;9.05;4.07;;;7.90;95.60;;;;;;5004295;28;20113;-49
2022/01/07 12:46:56;;;;;;;7.28;2.83;;;7.90;95.70;;;;;;5000493;28;20057;-49
2022/01/07 12:49:34;;;;;;;6.30;2.72;;;7.90;95.70;;;;;;5005473;28;20041;-49
2022/01/07 12:52:08;;;;;;;6.50;2.70;;;7.90;95.70;;;;;;4999229;28;20101;-49
2022/01/07 12:54:35;;;;;;;9.73;3.22;;;7.90;95.70;;;;;;5007033;28;20118;-49
2022/01/07 12:57:01;;;;;;;4.63;3.13;;;7.90;95.80;;;;;;5005919;28;20030;-50
2022/01/07 12:59:29;;;;;;;8.18;3.40;;;7.90;95.70;;;;;;5009492;28;20213;-49
2022/01/07 13:01:55;;;;;;;2.90;1.73;;;7.90;95.80;;;;;;5002931;28;20034;-49
2022/01/07 13:04:23;;;;;;;9.13;3.15;;;7.90;95.80;;;;;;5007203;28;20064;-50